Castle Airport Merced US
ICAO: KMER
IATA: MER
Category: Medium
Scheduled Services: No

Elevation: 191 ft
TransAlt. 18000 ft.

Airport Communications:
NORCAL APP/DEP:120.95
AWO 3:124.475
CTAF/UNICOM:123.075

KMER Zoom In..

Runways:

(A) RW 13 length 11802 ft width 150 ft
---- / hdg 126

(B) RW 31 length 11802 ft width 150 ft
ILS 109.50 / hdg 306

Location; KMER
Day. 23 / Time. 21.50 Zulu
* Altimeter: 30.24
* Temperature: 14° c. 57.2°f.
* Wind from: 130° Speed 05 kn.
Dewpoint: 10° c.
Visibility: 6 Statute Miles.
Clouds: Scattered 1200 ft.
Conditions: Haze.

KMER 232150Z 13005KT 6SM HZ SCT012 14/10 A3024


Wind From 130°
Speed 05 kn.

YouTube Music Video
 
jpsmedia.com for Web Design  worldairports.se 2018   terms of use